createdAt,value
2022-11-12T00:01:09.318Z,14.25
2022-11-12T00:03:57.227Z,10.95
2022-11-12T00:06:44.353Z,18.48
2022-11-12T00:09:32.603Z,12.32
2022-11-12T00:12:19.532Z,12.90
2022-11-12T00:15:06.729Z,13.75
2022-11-12T00:17:53.672Z,12.43
2022-11-12T00:20:40.794Z,13.77
2022-11-12T00:23:27.587Z,12.70
2022-11-12T00:26:15.935Z,12.95
2022-11-12T00:29:02.707Z,12.77
2022-11-12T00:31:49.503Z,12.95
2022-11-12T00:34:36.544Z,11.55
2022-11-12T00:37:24.788Z,10.27
2022-11-12T00:40:12.639Z,10.70
2022-11-12T00:43:01.021Z,10.80
2022-11-12T00:45:48.078Z,11.45
2022-11-12T00:48:35.059Z,10.38
2022-11-12T00:51:22.309Z,10.48
2022-11-12T00:54:09.072Z,11.18
2022-11-12T00:56:55.762Z,13.40
2022-11-12T00:59:43.951Z,15.02
2022-11-12T01:02:30.703Z,11.73
2022-11-12T01:05:17.381Z,12.90
2022-11-12T01:08:04.405Z,12.27
2022-11-12T01:10:51.232Z,12.98
2022-11-12T01:13:42.974Z,13.15
2022-11-12T01:16:33.111Z,17.42
2022-11-12T01:19:19.871Z,16.73
2022-11-12T01:22:06.668Z,15.85
2022-11-12T01:24:53.397Z,14.95
2022-11-12T01:27:40.164Z,19.33
2022-11-12T01:30:26.972Z,16.73
2022-11-12T01:33:15.038Z,17.42
2022-11-12T01:36:01.979Z,20.67
2022-11-12T01:38:49.243Z,18.73
2022-11-12T01:41:38.308Z,17.55
2022-11-12T01:44:26.744Z,20.40
2022-11-12T01:47:15.810Z,25.05
2022-11-12T01:50:16.731Z,18.88
2022-11-12T01:53:06.054Z,17.52
2022-11-12T01:55:52.943Z,24.17
2022-11-12T01:58:40.225Z,18.13
2022-11-12T02:01:27.569Z,21.23
2022-11-12T02:04:14.687Z,19.40
2022-11-12T02:07:04.148Z,19.08
2022-11-12T02:09:51.283Z,17.08
2022-11-12T02:12:55.953Z,18.27
2022-11-12T02:15:43.121Z,20.20
2022-11-12T02:18:30.025Z,19.85
2022-11-12T02:21:21.429Z,19.65
2022-11-12T02:24:28.339Z,22.38
2022-11-12T02:27:15.013Z,14.07
2022-11-12T02:30:01.888Z,15.98
2022-11-12T02:32:48.594Z,15.15
2022-11-12T02:35:35.556Z,14.20
2022-11-12T02:38:23.920Z,14.75
2022-11-12T02:41:10.981Z,13.80
2022-11-12T02:43:57.822Z,14.57
2022-11-12T02:46:44.560Z,13.75
2022-11-12T02:49:31.404Z,11.20
2022-11-12T02:52:18.068Z,14.00
2022-11-12T02:55:06.566Z,12.52
2022-11-12T02:57:53.779Z,10.73
2022-11-12T03:00:40.619Z,13.20
2022-11-12T03:03:27.362Z,13.73
2022-11-12T03:06:14.319Z,13.57
2022-11-12T03:09:01.021Z,12.27
2022-11-12T03:11:49.110Z,13.07
2022-11-12T03:14:36.218Z,13.43
2022-11-12T03:17:22.947Z,11.75
2022-11-12T03:20:10.276Z,12.48
2022-11-12T03:22:58.163Z,13.73
2022-11-12T03:25:45.232Z,14.18
2022-11-12T03:28:33.497Z,14.38
2022-11-12T03:31:20.391Z,16.13
2022-11-12T03:34:07.227Z,13.82
2022-11-12T03:36:54.004Z,12.18
2022-11-12T03:39:40.920Z,12.82
2022-11-12T03:42:27.766Z,13.88
2022-11-12T03:45:16.313Z,13.60
2022-11-12T03:48:03.400Z,12.35
2022-11-12T03:50:50.546Z,14.48
2022-11-12T03:53:37.402Z,15.55
2022-11-12T03:56:24.151Z,15.73
2022-11-12T03:59:11.211Z,14.18
2022-11-12T04:01:59.356Z,12.90
2022-11-12T04:05:03.841Z,11.95
2022-11-12T04:08:08.737Z,14.15
2022-11-12T04:10:56.130Z,12.38
2022-11-12T04:13:45.556Z,17.88
2022-11-12T04:16:50.011Z,19.00
2022-11-12T04:19:56.092Z,15.73
2022-11-12T04:22:42.975Z,16.23
2022-11-12T04:25:47.654Z,15.30
2022-11-12T04:28:34.651Z,13.27
2022-11-12T04:31:20.821Z,13.13
2022-11-12T04:34:21.474Z,16.08
2022-11-12T04:37:09.800Z,16.27
2022-11-12T04:40:17.695Z,22.75
2022-11-12T04:43:23.804Z,14.90
2022-11-12T04:46:11.271Z,16.30
2022-11-12T04:48:58.284Z,17.70
2022-11-12T04:52:03.127Z,14.73
2022-11-12T04:54:51.654Z,17.40
2022-11-12T04:57:38.574Z,17.52
2022-11-12T05:00:25.419Z,14.43
2022-11-12T05:03:12.156Z,16.08
2022-11-12T05:06:02.173Z,15.77
2022-11-12T05:08:48.835Z,24.33
2022-11-12T05:11:36.856Z,19.42
2022-11-12T05:14:23.590Z,16.33
2022-11-12T05:17:10.544Z,15.07
2022-11-12T05:19:57.201Z,18.55
2022-11-12T05:22:59.053Z,17.20
2022-11-12T05:25:52.229Z,15.90
2022-11-12T05:28:40.734Z,14.88
2022-11-12T05:31:27.679Z,15.73
2022-11-12T05:34:18.617Z,20.23
2022-11-12T05:37:09.186Z,13.88
2022-11-12T05:39:56.131Z,12.32
2022-11-12T05:42:42.893Z,13.13
2022-11-12T05:45:31.136Z,12.07
2022-11-12T05:48:21.600Z,12.52
2022-11-12T05:51:14.166Z,11.55
2022-11-12T05:54:01.572Z,15.75
2022-11-12T05:56:48.655Z,15.40
2022-11-12T05:59:35.624Z,15.10
2022-11-12T06:02:23.881Z,15.73
2022-11-12T06:05:11.128Z,17.33
2022-11-12T06:07:57.890Z,18.23
2022-11-12T06:10:44.642Z,17.42
2022-11-12T06:13:31.955Z,16.80
2022-11-12T06:16:18.785Z,17.15
2022-11-12T06:19:07.138Z,22.63
2022-11-12T06:21:54.207Z,17.27
2022-11-12T06:24:41.195Z,17.05
2022-11-12T06:27:27.924Z,16.17
2022-11-12T06:30:14.672Z,18.05
2022-11-12T06:33:01.471Z,14.73
2022-11-12T06:35:49.859Z,17.58
2022-11-12T06:38:37.564Z,19.15
2022-11-12T06:41:24.579Z,15.85
2022-11-12T06:44:11.450Z,19.85
2022-11-12T06:46:58.062Z,17.83
2022-11-12T06:49:45.077Z,17.20
2022-11-12T06:52:33.770Z,16.95
2022-11-12T06:55:20.574Z,20.40
2022-11-12T06:58:07.381Z,19.67
2022-11-12T07:00:54.370Z,21.27
2022-11-12T07:03:41.646Z,14.88
2022-11-12T07:06:28.583Z,17.30
2022-11-12T07:09:16.919Z,23.88
2022-11-12T07:12:03.610Z,17.58
2022-11-12T07:14:50.649Z,16.58
2022-11-12T07:17:37.656Z,15.05
2022-11-12T07:20:24.804Z,13.40
2022-11-12T07:23:11.627Z,15.15
2022-11-12T07:26:01.825Z,14.15
2022-11-12T07:28:50.174Z,14.45
2022-11-12T07:31:37.022Z,15.30
2022-11-12T07:34:23.771Z,14.13
2022-11-12T07:37:10.491Z,14.52
2022-11-12T07:39:57.665Z,13.85
2022-11-12T07:42:45.858Z,14.70
2022-11-12T07:45:32.786Z,12.93
2022-11-12T07:48:19.829Z,15.60
2022-11-12T07:51:07.743Z,15.80
2022-11-12T07:53:59.197Z,18.35
2022-11-12T07:56:46.646Z,18.52
2022-11-12T07:59:34.955Z,22.30
2022-11-12T08:02:21.851Z,17.48
2022-11-12T08:05:15.449Z,18.73
2022-11-12T08:08:04.554Z,25.58
2022-11-12T08:10:55.298Z,19.10
2022-11-12T08:13:42.038Z,19.35
2022-11-12T08:16:30.094Z,21.88
2022-11-12T08:19:16.974Z,17.60
2022-11-12T08:22:03.671Z,17.85
2022-11-12T08:24:50.595Z,18.60
2022-11-12T08:27:37.471Z,15.52
2022-11-12T08:30:24.558Z,17.80
2022-11-12T08:33:12.851Z,15.85
2022-11-12T08:35:59.977Z,16.50
2022-11-12T08:38:47.289Z,16.73
2022-11-12T08:41:33.981Z,15.60
2022-11-12T08:44:20.772Z,16.20
2022-11-12T08:47:07.810Z,17.08
2022-11-12T08:49:55.782Z,15.13
2022-11-12T08:52:42.585Z,13.50
2022-11-12T08:55:29.432Z,16.80
2022-11-12T08:58:16.213Z,14.88
2022-11-12T09:01:05.951Z,16.25
2022-11-12T09:03:53.632Z,17.70
2022-11-12T09:06:41.857Z,14.10
2022-11-12T09:09:28.669Z,18.00
2022-11-12T09:12:19.680Z,14.38
2022-11-12T09:15:36.237Z,15.13
2022-11-12T09:18:15.149Z,15.55
2022-11-12T09:21:02.791Z,15.45
2022-11-12T09:23:51.055Z,15.38
2022-11-12T09:26:37.839Z,14.25
2022-11-12T09:29:24.864Z,16.85
2022-11-12T09:32:11.698Z,16.52
2022-11-12T09:34:58.463Z,14.25
2022-11-12T09:37:45.474Z,17.33
2022-11-12T09:40:45.706Z,16.17
2022-11-12T09:43:35.228Z,16.05
2022-11-12T09:46:29.388Z,18.20
2022-11-12T09:49:17.977Z,19.58
2022-11-12T09:52:06.031Z,15.20
2022-11-12T09:54:56.978Z,14.13
2022-11-12T09:57:45.324Z,15.32
2022-11-12T10:00:32.212Z,16.63
2022-11-12T10:03:26.415Z,22.85
2022-11-12T10:06:18.130Z,18.45
2022-11-12T10:09:07.275Z,20.20
2022-11-12T10:12:17.364Z,19.50
2022-11-12T10:15:36.755Z,18.58
2022-11-12T10:18:30.521Z,19.23
2022-11-12T10:21:21.618Z,21.67
2022-11-12T10:24:09.684Z,21.00
2022-11-12T10:26:58.738Z,18.58
2022-11-12T10:29:50.776Z,17.77
2022-11-12T10:32:39.058Z,20.52
2022-11-12T10:35:26.332Z,20.92
2022-11-12T10:38:14.411Z,21.05
2022-11-12T10:41:01.345Z,22.83
2022-11-12T10:43:54.846Z,25.90
2022-11-12T10:46:41.676Z,19.23
2022-11-12T10:49:30.045Z,19.13
2022-11-12T10:52:23.185Z,24.05
2022-11-12T10:55:16.871Z,20.83
2022-11-12T10:58:21.775Z,19.63
2022-11-12T11:01:15.199Z,19.58
2022-11-12T11:04:02.437Z,21.42
2022-11-12T11:06:59.095Z,18.38
2022-11-12T11:09:53.670Z,20.40
2022-11-12T11:12:40.625Z,16.27
2022-11-12T11:15:27.285Z,18.17
2022-11-12T11:18:14.555Z,16.58
2022-11-12T11:21:05.211Z,18.10
2022-11-12T11:23:57.709Z,20.00
2022-11-12T11:26:53.966Z,19.27
2022-11-12T11:29:52.920Z,19.00
2022-11-12T11:32:47.563Z,31.33
2022-11-12T11:35:42.605Z,20.67
2022-11-12T11:38:34.703Z,19.67
2022-11-12T11:41:38.948Z,21.10
2022-11-12T11:44:30.308Z,23.00
2022-11-12T11:47:23.411Z,19.95
2022-11-12T11:50:19.266Z,24.42
2022-11-12T11:53:13.409Z,22.50
2022-11-12T11:56:03.983Z,21.65
2022-11-12T11:59:07.092Z,25.65
2022-11-12T12:02:00.122Z,21.50
2022-11-12T12:04:49.047Z,20.52
2022-11-12T12:07:39.220Z,18.77
2022-11-12T12:10:46.225Z,20.40
2022-11-12T12:13:41.095Z,20.88
2022-11-12T12:16:36.368Z,18.65
2022-11-12T12:19:29.731Z,20.85
2022-11-12T12:22:19.441Z,19.13
2022-11-12T12:25:11.239Z,19.13
2022-11-12T12:28:01.555Z,18.77
2022-11-12T12:30:51.761Z,19.08
2022-11-12T12:33:45.098Z,21.30
2022-11-12T12:36:33.155Z,22.00
2022-11-12T12:39:20.750Z,19.85
2022-11-12T12:42:12.283Z,18.33
2022-11-12T12:45:00.944Z,20.42
2022-11-12T12:47:48.289Z,19.17
2022-11-12T12:50:38.381Z,20.27
2022-11-12T12:53:35.458Z,19.15
2022-11-12T12:56:40.931Z,20.15
2022-11-12T12:59:27.866Z,20.35
2022-11-12T13:02:20.896Z,18.58
2022-11-12T13:05:08.007Z,21.52
2022-11-12T13:07:58.744Z,20.90
2022-11-12T13:10:48.253Z,20.13
2022-11-12T13:13:35.486Z,21.38
2022-11-12T13:16:37.220Z,22.40
2022-11-12T13:19:29.071Z,21.98
2022-11-12T13:22:35.519Z,22.15
2022-11-12T13:25:30.739Z,23.83
2022-11-12T13:28:17.851Z,21.42
2022-11-12T13:31:05.328Z,23.20
2022-11-12T13:33:52.551Z,22.08
2022-11-12T13:36:39.670Z,23.70
2022-11-12T13:39:26.706Z,24.83
2022-11-12T13:42:33.494Z,24.55
2022-11-12T13:45:22.139Z,23.13
2022-11-12T13:48:09.986Z,30.45
2022-11-12T13:50:58.815Z,28.25
2022-11-12T13:53:45.536Z,28.00
2022-11-12T13:56:33.450Z,25.27
2022-11-12T13:59:22.967Z,25.23
2022-11-12T14:02:19.686Z,25.75
2022-11-12T14:05:13.208Z,25.55
2022-11-12T14:08:07.038Z,22.55
2022-11-12T14:11:01.326Z,25.08
2022-11-12T14:13:55.216Z,23.27
2022-11-12T14:16:48.444Z,23.48
2022-11-12T14:19:50.312Z,22.45
2022-11-12T14:22:41.271Z,24.35
2022-11-12T14:25:29.263Z,23.35
2022-11-12T14:28:27.447Z,26.27
2022-11-12T14:31:15.086Z,25.27
2022-11-12T14:34:16.932Z,24.23
2022-11-12T14:37:05.438Z,24.92
2022-11-12T14:39:52.276Z,26.27
2022-11-12T14:42:39.060Z,28.70
2022-11-12T14:45:28.023Z,26.38
2022-11-12T14:48:17.927Z,28.33
2022-11-12T14:51:07.555Z,26.73
2022-11-12T14:53:56.686Z,29.70
2022-11-12T14:56:47.391Z,30.40
2022-11-12T14:59:34.863Z,28.13
2022-11-12T15:02:36.043Z,29.98
2022-11-12T15:05:24.369Z,29.33
2022-11-12T15:08:12.897Z,31.65
2022-11-12T15:11:20.420Z,31.13
2022-11-12T15:14:12.664Z,32.15
2022-11-12T15:17:00.546Z,34.38
2022-11-12T15:19:47.664Z,31.08
2022-11-12T15:22:34.633Z,30.23
2022-11-12T15:25:22.800Z,31.90
2022-11-12T15:28:22.888Z,29.83
2022-11-12T15:31:10.483Z,28.60
2022-11-12T15:34:13.114Z,33.25
2022-11-12T15:37:01.452Z,31.17
2022-11-12T15:39:49.883Z,27.30
2022-11-12T15:42:39.170Z,28.98
2022-11-12T15:45:27.500Z,28.33
2022-11-12T15:48:14.452Z,31.55
2022-11-12T15:51:01.404Z,26.85
2022-11-12T15:53:48.123Z,25.73
2022-11-12T15:56:35.255Z,28.55
2022-11-12T15:59:22.641Z,29.50
2022-11-12T16:02:13.602Z,31.10
2022-11-12T16:05:00.481Z,32.78
2022-11-12T16:07:47.573Z,32.03
2022-11-12T16:10:34.755Z,30.88
2022-11-12T16:13:25.329Z,29.77
2022-11-12T16:16:13.173Z,33.80
2022-11-12T16:19:01.614Z,31.20
2022-11-12T16:21:48.656Z,33.13
2022-11-12T16:24:35.748Z,35.13
2022-11-12T16:27:22.828Z,36.78
2022-11-12T16:30:15.590Z,37.20
2022-11-12T16:33:02.790Z,32.72
2022-11-12T16:35:50.978Z,27.13
2022-11-12T16:38:37.898Z,30.02
2022-11-12T16:41:24.600Z,33.75
2022-11-12T16:44:11.725Z,32.22
2022-11-12T16:46:58.326Z,31.63
2022-11-12T16:49:45.310Z,33.63
2022-11-12T16:52:33.399Z,40.50
2022-11-12T16:55:20.556Z,30.67
2022-11-12T16:58:07.276Z,30.55
2022-11-12T17:00:55.544Z,34.55
2022-11-12T17:03:42.951Z,30.10
2022-11-12T17:06:36.495Z,26.95
2022-11-12T17:09:24.974Z,25.60
2022-11-12T17:12:11.891Z,21.80
2022-11-12T17:14:58.794Z,22.85
2022-11-12T17:17:45.877Z,23.55
2022-11-12T17:20:32.909Z,26.40
2022-11-12T17:23:19.919Z,23.40
2022-11-12T17:26:09.630Z,36.85
2022-11-12T17:29:02.237Z,24.63
2022-11-12T17:31:51.726Z,31.70
2022-11-12T17:34:38.599Z,35.70
2022-11-12T17:37:25.275Z,25.95
2022-11-12T17:40:12.767Z,31.70
2022-11-12T17:43:00.945Z,33.63
2022-11-12T17:45:50.660Z,34.08
2022-11-12T17:48:38.845Z,32.40
2022-11-12T17:51:27.026Z,30.35
2022-11-12T17:54:14.143Z,31.33
2022-11-12T17:57:00.891Z,32.20
2022-11-12T17:59:49.183Z,32.90
2022-11-12T18:02:36.319Z,34.95
2022-11-12T18:05:23.281Z,31.88
2022-11-12T18:08:11.294Z,31.77
2022-11-12T18:10:58.108Z,32.22
2022-11-12T18:13:45.067Z,29.38
2022-11-12T18:16:33.236Z,40.25
2022-11-12T18:19:20.290Z,32.40
2022-11-12T18:22:07.421Z,38.78
2022-11-12T18:24:54.500Z,36.33
2022-11-12T18:27:41.657Z,34.15
2022-11-12T18:30:28.650Z,28.42
2022-11-12T18:33:16.768Z,45.08
2022-11-12T18:36:04.296Z,22.55
2022-11-12T18:38:52.410Z,25.67
2022-11-12T18:41:39.232Z,26.15
2022-11-12T18:44:26.396Z,25.83
2022-11-12T18:47:13.030Z,29.48
2022-11-12T18:50:07.169Z,35.20
2022-11-12T18:52:55.361Z,28.23
2022-11-12T18:55:42.114Z,23.00
2022-11-12T18:58:34.910Z,25.10
2022-11-12T19:01:23.702Z,29.40
2022-11-12T19:04:11.615Z,31.08
2022-11-12T19:07:00.039Z,38.45
2022-11-12T19:09:47.043Z,25.63
2022-11-12T19:12:34.122Z,28.45
2022-11-12T19:15:26.467Z,24.48
2022-11-12T19:18:13.888Z,28.30
2022-11-12T19:21:04.229Z,26.10
2022-11-12T19:23:54.862Z,27.65
2022-11-12T19:26:41.984Z,29.52
2022-11-12T19:29:28.637Z,22.08
2022-11-12T19:32:15.808Z,26.05
2022-11-12T19:35:03.044Z,23.95
2022-11-12T19:37:50.056Z,23.88
2022-11-12T19:40:38.689Z,22.90
2022-11-12T19:43:25.744Z,21.13
2022-11-12T19:46:12.932Z,17.35
2022-11-12T19:49:00.285Z,19.15
2022-11-12T19:51:47.168Z,19.83
2022-11-12T19:54:34.095Z,19.15
2022-11-12T19:57:22.832Z,25.58
2022-11-12T20:00:11.516Z,17.10
2022-11-12T20:02:59.740Z,18.98
2022-11-12T20:05:46.753Z,20.65
2022-11-12T20:08:34.133Z,29.45
2022-11-12T20:11:21.042Z,22.33
2022-11-12T20:14:09.195Z,17.77
2022-11-12T20:16:56.059Z,18.08
2022-11-12T20:19:42.862Z,22.35
2022-11-12T20:22:32.299Z,18.73
2022-11-12T20:25:19.430Z,32.92
2022-11-12T20:28:06.711Z,16.83
2022-11-12T20:31:00.600Z,18.55
2022-11-12T20:33:48.522Z,27.45
2022-11-12T20:36:35.755Z,20.73
2022-11-12T20:39:22.901Z,19.58
2022-11-12T20:42:09.889Z,18.75
2022-11-12T20:44:56.714Z,20.20
2022-11-12T20:47:45.032Z,22.65
2022-11-12T20:50:32.004Z,17.27
2022-11-12T20:53:18.607Z,19.10
2022-11-12T20:56:09.849Z,19.58
2022-11-12T20:58:57.181Z,19.10
2022-11-12T21:01:44.199Z,22.52
2022-11-12T21:04:32.533Z,25.58
2022-11-12T21:07:19.354Z,25.02
2022-11-12T21:10:06.847Z,18.73
2022-11-12T21:12:53.932Z,16.58
2022-11-12T21:15:40.741Z,16.13
2022-11-12T21:18:28.344Z,18.27
2022-11-12T21:21:18.238Z,15.95
2022-11-12T21:24:05.704Z,41.53
2022-11-12T21:26:52.538Z,20.15
2022-11-12T21:29:39.529Z,15.60
2022-11-12T21:32:26.684Z,21.35
2022-11-12T21:35:13.819Z,16.52
2022-11-12T21:38:02.320Z,33.33
2022-11-12T21:40:49.409Z,16.58
2022-11-12T21:43:37.606Z,14.93
2022-11-12T21:46:25.000Z,17.65
2022-11-12T21:49:12.358Z,16.60
2022-11-12T21:51:59.355Z,16.00
2022-11-12T21:54:47.710Z,17.90
2022-11-12T21:57:34.640Z,24.50
2022-11-12T22:00:41.705Z,23.92
2022-11-12T22:03:31.432Z,17.33
2022-11-12T22:06:18.974Z,14.70
2022-11-12T22:09:06.162Z,15.68
2022-11-12T22:11:54.509Z,13.63
2022-11-12T22:14:42.635Z,15.73
2022-11-12T22:17:29.426Z,8.98
2022-11-12T22:20:16.256Z,10.75
2022-11-12T22:23:03.044Z,13.20
2022-11-12T22:25:50.551Z,11.05
2022-11-12T22:28:38.999Z,11.65
2022-11-12T22:31:26.926Z,11.88
2022-11-12T22:34:14.177Z,10.93
2022-11-12T22:37:01.352Z,11.02
2022-11-12T22:39:48.080Z,12.15
2022-11-12T22:42:35.045Z,17.45
2022-11-12T22:45:23.422Z,15.65
2022-11-12T22:48:10.885Z,17.23
2022-11-12T22:50:59.598Z,16.63
2022-11-12T22:53:46.342Z,18.30
2022-11-12T22:56:34.142Z,17.23
2022-11-12T22:59:21.125Z,38.55
2022-11-12T23:02:09.389Z,20.00
2022-11-12T23:04:56.543Z,17.95
2022-11-12T23:07:43.467Z,22.42
2022-11-12T23:10:31.835Z,14.90
2022-11-12T23:13:18.889Z,16.70
2022-11-12T23:16:07.887Z,15.40
2022-11-12T23:18:56.243Z,15.13
2022-11-12T23:21:42.948Z,16.27
2022-11-12T23:24:29.812Z,20.90
2022-11-12T23:27:16.938Z,15.45
2022-11-12T23:30:04.096Z,15.73
2022-11-12T23:32:50.952Z,17.30
2022-11-12T23:35:39.529Z,25.38
2022-11-12T23:38:27.015Z,23.42
2022-11-12T23:41:15.302Z,16.95
2022-11-12T23:44:02.376Z,14.65
2022-11-12T23:46:49.283Z,15.70
2022-11-12T23:49:35.961Z,31.63
2022-11-12T23:52:24.202Z,15.18
2022-11-12T23:55:11.093Z,16.23
2022-11-12T23:57:57.822Z,17.30
